METAR Data
IDs: Format: Raw Decoded Include TAF

Data at: 1308 UTC 07 Jul 2020

KEWB 071253Z 16008KT 10SM SCT013 19/16 A3019 RMK AO2 SLP223 T01890161
KEWB 071153Z 11005KT 10SM FEW010 18/16 A3018 RMK AO2 SLP221 T01830161 10183 20161 53006
KEWB 071130Z 13004KT 10SM BKN010 18/16 A3018 RMK AO2 T01780161
KEWB 071118Z 15004KT 10SM SCT009 18/16 A3018 RMK AO2 T01780161
KEWB 071053Z 11003KT 10SM FEW010 SCT070 17/16 A3018 RMK AO2 SLP218 T01720161
KEWB 070953Z AUTO 14004KT 10SM BKN080 BKN100 17/16 A3017 RMK AO2 SLP217 T01670161
KEWB 070928Z AUTO 14005KT 10SM SCT011 BKN060 BKN080 16/16 A3016 RMK AO2 T01610161
KEWB 070853Z AUTO 20003KT 10SM BKN012 BKN060 OVC075 17/16 A3017 RMK AO2 SLP214 T01670161 53002
KEWB 070827Z AUTO 00000KT 10SM BKN011 BKN070 17/16 A3016 RMK AO2 T01670161
KEWB 070753Z AUTO 18007KT 10SM SCT012 BKN070 BKN080 17/17 A3014 RMK AO2 SLP206 T01670167
KEWB 070653Z AUTO 23003KT 10SM BKN010 BKN065 17/17 A3015 RMK AO2 SLP210 T01670167
KEWB 070553Z AUTO 21004KT 10SM FEW010 BKN065 OVC100 17/17 A3016 RMK AO2 SLP212 T01720167 10211 20167 50002
KEWB 070508Z AUTO 15005KT 10SM SCT012 BKN070 18/17 A3016 RMK AO2 T01780167
KEWB 070501Z AUTO 16006KT 10SM BKN012 BKN065 18/17 A3016 RMK AO2 T01830172
KEWB 070453Z AUTO 15007KT 10SM SCT012 BKN070 OVC090 18/17 A3016 RMK AO2 SLP213 T01830172 402440167
KEWB 070450Z AUTO 14008KT 10SM SCT012 BKN065 OVC090 18/17 A3016 RMK AO2
KEWB 070409Z AUTO 00000KT 10SM BKN012 OVC070 17/17 A3016 RMK AO2 T01720172
KEWB 070353Z AUTO 00000KT 10SM SCT012 OVC070 18/17 A3015 RMK AO2 SLP210 T01780172
KEWB 070341Z AUTO 00000KT 10SM SCT012 OVC065 18/17 A3015 RMK AO2 T01780172
KEWB 070326Z AUTO 07003KT 10SM BKN011 OVC075 17/17 A3014 RMK AO2 T01720172
KEWB 070253Z AUTO 10003KT 10SM FEW011 OVC070 18/17 A3014 RMK AO2 SLP206 T01780172 51012
KEWB 070231Z AUTO 06004KT 10SM FEW009 BKN070 BKN085 17/17 A3014 RMK AO2 T01720167
KEWB 070153Z 06003KT 10SM FEW080 17/17 A3014 RMK AO2 SLP206 T01720167
KEWB 070053Z 09004KT 10SM SCT080 18/16 A3013 RMK AO2 SLP203 T01830161
KEWB 062353Z 10006KT 10SM CLR 21/16 A3011 RMK AO2 SLP194 T02110161 10244 20211 51008
KEWB 062253Z 04007KT 10SM CLR 23/17 A3010 RMK AO2 SLP192 T02280167
KEWB 062153Z 04007KT 10SM CLR 24/17 A3010 RMK AO2 SLP192 T02390172
KEWB 062053Z COR 04010KT 10SM FEW021 24/18 A3008 RMK AO2 SLP187 T02440178 58002
KEWB 061953Z 06008KT 10SM SCT022 24/18 A3008 RMK AO2 SLP187 T02390183
KEWB 061940Z 06009KT 10SM SCT021 24/19 A3008 RMK AO2 T02440189
KEWB 061853Z 05008KT 10SM BKN017 24/19 A3009 RMK AO2 SLP189 T02390189
KEWB 061753Z 04008KT 10SM OVC019 23/19 A3009 RMK AO2 SLP188 T02280194 10239 20211 51009
KEWB 061653Z 05009KT 10SM BKN016 OVC021 23/19 A3008 RMK AO2 SLP185 T02330194
KEWB 061611Z 02005KT 10SM OVC015 23/19 A3008 RMK AO2 T02330194
KEWB 061553Z 03008KT 10SM OVC013 23/19 A3008 RMK AO2 SLP185 T02280189
KEWB 061453Z 36008G14KT 10SM OVC012 22/19 A3006 RMK AO2 SLP179 T02220189 52015
KEWB 061353Z 36007KT 10SM OVC010 22/19 A3004 RMK AO2 SLP173 T02170194
KEWB 061300Z 01004KT 10SM OVC005 21/20 A3003 RMK AO2 T02110200
KEWB 061253Z VRB05KT 2SM BR OVC005 21/20 A3003 RMK AO2 CIG 004V009 SLP169 T02110200
KEWB 061228Z 03005KT 2SM BR OVC005 21/21 A3003 RMK AO2 T02060206 $
KEWB 061153Z 02003KT 2SM BR OVC003 21/21 A3002 RMK AO2 CIG 002V006 SLP164 T02060206 10217 20206 53020 $
KEWB 061053Z VRB06KT 1/2SM R05/2800V3500FT FG VV002 21/21 A2999 RMK AO2 SLP156 T02110211 $
KEWB 061024Z 35003KT 1SM R05/2400V5500FT BR VV002 22/22 A2998 RMK AO2 T02170217 $
KEWB 060953Z AUTO 00000KT 10SM R05/2200V2800FT OVC002 22/22 A2997 RMK AO2 SLP147 T02170217 $
KEWB 060853Z AUTO 24005KT 10SM R05/2800V5000FT OVC002 22/22 A2995 RMK AO2 SLP143 T02170217 55000 $
KEWB 060753Z AUTO 19004KT 10SM R05/1800V2600FT OVC002 22/21 A2994 RMK AO2 SLP137 T02170211 $
KEWB 060744Z AUTO 20004KT 10SM R05/1800V2000FT OVC002 22/21 A2994 RMK AO2 T02170211 $
KEWB 060709Z AUTO 00000KT 10SM OVC004 22/21 A2995 RMK AO2 CIG 002V007 T02170211
KEWB 060653Z AUTO 17003KT 10SM OVC006 21/21 A2995 RMK AO2 SLP141 T02110211
KEWB 060632Z AUTO 17003KT 10SM BKN006 OVC075 22/21 A2995 RMK AO2 T02170211
KEWB 060623Z AUTO 17004KT 10SM SCT006 BKN075 22/21 A2995 RMK AO2 T02170211
KEWB 060553Z AUTO 13004KT 10SM SCT070 BKN095 21/21 A2995 RMK AO2 LTG DSNT E SLP143 60000 T02110211 10217 20200 53000
KEWB 060514Z AUTO 00000KT 10SM FEW016 SCT023 SCT120 22/21 A2996 RMK AO2 LTG DSNT E T02170211
KEWB 060502Z AUTO 16004KT 10SM SCT014 BKN024 BKN045 22/21 A2996 RMK AO2 LTG DSNT E T02170211
KEWB 060453Z AUTO VRB03KT 10SM VCTS SCT010 BKN024 OVC120 22/21 A2997 RMK AO2 LTG DSNT E RAB31E48 SLP147 P0000 T02170211 402720178
KEWB 060438Z AUTO 02005KT 10SM VCTS RA SCT002 BKN012 OVC075 21/21 A2998 RMK AO2 LTG DSNT NE AND E RAB31 P0000 T02110211
KEWB 060431Z AUTO 00000KT 10SM VCTS -RA BKN002 OVC010 21/21 A2998 RMK AO2 LTG DSNT NW-E RAB31 P0000 T02110211
KEWB 060353Z AUTO 22009KT 10SM R05/3500V4000FT OVC002 21/21 A2993 RMK AO2 LTG DSNT NW-NE SLP136 T02060206
KEWB 060253Z AUTO 19007KT 10SM R05/5000VP6000FT OVC002 21/21 A2995 RMK AO2 SLP143 T02060206 51008
KEWB 060153Z 18006KT 10SM OVC003 20/20 A2995 RMK AO2 SLP141 T02000200
KEWB 060143Z 16006KT 10SM OVC004 20/20 A2995 RMK AO2 T02000200